Time;durP1;ratioP1;P1;durP2;ratioP2;P2;SDS_P1;SDS_P2;PMS_P1;PMS_P2;Temp;Humidity;BMP_temperature;BMP_pressure;BME280_temperature;BME280_humidity;BME280_pressure;Samples;Min_cycle;Max_cycle;Signal;HPM_P1;HPM_P2
2022/06/06 00:00:52;;;;;;;2.35;1.10;;;26.40;50.90;;;;;;5034539;28;20026;-46
2022/06/06 00:03:19;;;;;;;2.35;1.00;;;26.40;50.80;;;;;;5032989;28;20477;-47
2022/06/06 00:05:47;;;;;;;3.15;1.05;;;26.40;50.80;;;;;;5034382;28;20022;-45
2022/06/06 00:08:15;;;;;;;3.80;1.30;;;26.40;50.80;;;;;;5024604;28;20022;-46
2022/06/06 00:10:45;;;;;;;3.50;1.17;;;26.30;50.80;;;;;;5035097;28;20025;-49
2022/06/06 00:13:14;;;;;;;2.33;0.85;;;26.30;50.90;;;;;;5025787;28;20096;-46
2022/06/06 00:15:40;;;;;;;2.50;0.90;;;26.30;50.90;;;;;;5034973;28;20111;-47
2022/06/06 00:18:06;;;;;;;3.80;1.27;;;26.30;50.90;;;;;;5033135;28;20096;-46
2022/06/06 00:20:33;;;;;;;2.83;0.90;;;26.30;50.90;;;;;;5035795;28;20032;-46
2022/06/06 00:22:59;;;;;;;2.35;1.00;;;26.30;50.90;;;;;;5030101;28;20052;-47
2022/06/06 00:25:28;;;;;;;1.85;0.80;;;26.30;51.00;;;;;;5033076;28;20041;-47
2022/06/06 00:27:54;;;;;;;2.53;1.00;;;26.30;51.00;;;;;;5032372;28;20036;-47
2022/06/06 00:30:20;;;;;;;3.40;1.23;;;26.30;51.00;;;;;;5024274;28;20037;-47
2022/06/06 00:35:30;;;;;;;2.88;1.00;;;26.30;51.00;;;;;;5033124;28;20032;-46
2022/06/06 00:37:56;;;;;;;2.75;0.95;;;26.30;51.00;;;;;;5033085;28;20029;-48
2022/06/06 00:40:24;;;;;;;2.25;0.80;;;26.30;51.00;;;;;;5032346;28;20553;-46
2022/06/06 00:42:50;;;;;;;2.63;1.05;;;26.30;51.00;;;;;;5028224;28;20024;-47
2022/06/06 00:45:26;;;;;;;3.08;0.95;;;26.30;51.00;;;;;;5030927;28;20025;-51
2022/06/06 00:48:13;;;;;;;1.92;0.80;;;26.30;51.00;;;;;;5032653;28;20025;-46
2022/06/06 00:50:57;;;;;;;2.03;0.88;;;26.30;50.90;;;;;;5033934;28;20024;-47
2022/06/06 00:53:36;;;;;;;2.38;0.90;;;26.30;50.90;;;;;;5031760;28;20040;-47
2022/06/06 00:56:37;;;;;;;1.85;0.80;;;26.30;50.80;;;;;;5033017;28;20429;-46
2022/06/06 00:59:06;;;;;;;1.70;0.73;;;26.30;50.80;;;;;;5030441;28;20025;-47
2022/06/06 01:01:35;;;;;;;2.40;0.90;;;26.30;51.50;;;;;;5034471;28;20029;-47
2022/06/06 01:04:03;;;;;;;2.00;0.80;;;26.30;50.80;;;;;;5031761;28;20037;-46
2022/06/06 01:06:33;;;;;;;2.08;0.95;;;26.30;50.90;;;;;;5032845;28;20044;-47
2022/06/06 01:08:59;;;;;;;1.75;0.80;;;26.30;50.90;;;;;;5031222;28;20030;-46
2022/06/06 01:11:25;;;;;;;2.50;0.85;;;26.30;50.90;;;;;;5024082;28;20027;-46
2022/06/06 01:13:53;;;;;;;2.15;0.80;;;26.30;50.90;;;;;;5033249;28;20025;-46
2022/06/06 01:16:49;;;;;;;3.22;0.90;;;26.30;50.90;;;;;;5032003;28;20044;-47
2022/06/06 01:19:42;;;;;;;2.10;0.77;;;26.20;51.00;;;;;;5020242;28;20119;-47
2022/06/06 01:22:45;;;;;;;2.13;0.70;;;26.20;51.00;;;;;;5031852;28;20029;-46
2022/06/06 01:25:26;;;;;;;1.65;0.88;;;26.20;51.00;;;;;;5032328;28;20082;-46
2022/06/06 01:28:00;;;;;;;2.33;0.70;;;26.20;51.00;;;;;;5023583;28;20096;-46
2022/06/06 01:30:34;;;;;;;2.17;0.90;;;26.20;51.10;;;;;;5028491;28;20033;-47
2022/06/06 01:33:02;;;;;;;1.95;0.90;;;26.20;51.00;;;;;;5013239;28;20091;-46
2022/06/06 01:35:33;;;;;;;3.35;1.33;;;26.20;50.90;;;;;;5031593;28;20677;-47
2022/06/06 01:37:59;;;;;;;4.10;1.00;;;26.20;50.90;;;;;;5031452;28;20033;-46
2022/06/06 01:40:36;;;;;;;2.03;0.77;;;26.20;50.90;;;;;;5023338;28;20571;-47
2022/06/06 01:43:08;;;;;;;2.00;0.75;;;26.20;50.90;;;;;;5032727;28;20025;-46
2022/06/06 01:45:56;;;;;;;2.08;0.80;;;26.20;50.80;;;;;;5031710;28;20029;-47
2022/06/06 01:48:26;;;;;;;1.90;0.60;;;26.20;50.70;;;;;;5022187;28;20033;-47
2022/06/06 01:50:53;;;;;;;2.88;1.00;;;26.20;50.70;;;;;;5031690;28;20108;-46
2022/06/06 01:53:24;;;;;;;2.58;0.95;;;26.20;50.80;;;;;;5022602;28;20195;-47
2022/06/06 01:55:51;;;;;;;2.22;0.80;;;26.20;50.80;;;;;;5031280;28;20512;-46
2022/06/06 01:58:30;;;;;;;1.90;0.70;;;26.10;50.80;;;;;;5023751;28;20033;-47
2022/06/06 02:00:55;;;;;;;1.77;0.70;;;26.20;50.80;;;;;;5032343;28;20032;-46
2022/06/06 02:03:21;;;;;;;1.73;0.65;;;26.20;50.80;;;;;;5022967;28;20014;-46
2022/06/06 02:05:47;;;;;;;2.15;0.70;;;26.10;50.80;;;;;;5032794;28;20789;-45
2022/06/06 02:08:14;;;;;;;2.63;0.90;;;26.20;50.90;;;;;;5022685;28;21276;-46
2022/06/06 02:10:40;;;;;;;2.03;0.82;;;26.20;50.90;;;;;;5032510;28;20036;-47
2022/06/06 02:13:06;;;;;;;1.70;0.80;;;26.20;50.80;;;;;;5029764;28;20678;-47
2022/06/06 02:15:33;;;;;;;2.78;1.02;;;26.20;50.90;;;;;;5015275;28;20104;-45
2022/06/06 02:17:59;;;;;;;2.97;0.80;;;26.20;50.80;;;;;;5032498;28;20544;-47
2022/06/06 02:20:28;;;;;;;0.95;0.52;;;26.10;50.80;;;;;;5032309;28;20136;-46
2022/06/06 02:22:54;;;;;;;1.77;0.70;;;26.20;50.80;;;;;;5022680;28;20018;-47
2022/06/06 02:25:20;;;;;;;1.52;0.55;;;26.20;50.80;;;;;;5032736;28;20029;-47
2022/06/06 02:27:46;;;;;;;2.17;0.90;;;26.20;50.70;;;;;;5030471;28;20022;-48
2022/06/06 02:30:16;;;;;;;2.03;0.63;;;26.10;50.70;;;;;;5031205;28;20486;-46
2022/06/06 02:32:43;;;;;;;1.25;0.70;;;26.10;50.60;;;;;;5033874;28;20032;-46
2022/06/06 02:35:11;;;;;;;1.80;0.70;;;26.10;50.60;;;;;;5026494;28;20625;-46
2022/06/06 02:37:37;;;;;;;2.25;0.90;;;26.10;50.60;;;;;;5036181;28;20698;-47
2022/06/06 02:40:05;;;;;;;1.83;0.80;;;26.10;50.50;;;;;;5025222;28;20017;-47
2022/06/06 02:42:31;;;;;;;2.53;1.00;;;26.10;50.60;;;;;;5035475;28;20021;-46
2022/06/06 02:44:57;;;;;;;1.98;0.70;;;26.10;50.60;;;;;;5034548;28;20388;-47
2022/06/06 02:47:22;;;;;;;2.25;0.77;;;26.10;50.60;;;;;;5025751;28;20038;-47
2022/06/06 02:49:48;;;;;;;2.42;0.60;;;26.10;50.60;;;;;;5034619;28;20301;-47
2022/06/06 02:52:14;;;;;;;1.92;0.60;;;26.10;50.70;;;;;;5025895;28;20028;-46
2022/06/06 02:54:40;;;;;;;6.25;0.93;;;26.10;50.70;;;;;;5036018;28;20119;-47
2022/06/06 02:57:05;;;;;;;1.88;0.60;;;26.10;50.60;;;;;;5035795;28;20029;-49
2022/06/06 02:59:34;;;;;;;1.58;0.60;;;26.10;50.60;;;;;;5033842;28;20028;-46
2022/06/06 03:02:02;;;;;;;1.75;0.50;;;26.10;50.70;;;;;;5025891;28;20033;-45
2022/06/06 03:04:28;;;;;;;2.15;0.80;;;26.10;50.60;;;;;;5036264;28;20029;-47
2022/06/06 03:07:23;;;;;;;1.60;0.68;;;26.10;50.70;;;;;;5036134;28;20035;-47
2022/06/06 03:10:06;;;;;;;1.65;0.50;;;26.10;50.70;;;;;;4961185;28;20042;-47
2022/06/06 03:13:04;;;;;;;1.65;0.55;;;26.10;51.40;;;;;;5035779;28;20022;-47
2022/06/06 03:15:39;;;;;;;2.08;0.80;;;26.10;50.70;;;;;;5035198;28;20460;-47
2022/06/06 03:21:26;;;;;;;1.67;0.65;;;26.10;50.60;;;;;;5034903;28;20082;-47
2022/06/06 03:23:57;;;;;;;1.17;0.60;;;26.10;50.60;;;;;;5035080;28;20016;-47
2022/06/06 03:26:26;;;;;;;2.00;0.80;;;26.10;50.50;;;;;;5035338;28;20537;-47
2022/06/06 03:29:14;;;;;;;2.45;0.85;;;26.10;50.50;;;;;;5028810;28;20114;-47
2022/06/06 03:32:11;;;;;;;1.50;0.63;;;26.10;50.50;;;;;;5035110;28;20484;-46
2022/06/06 03:34:50;;;;;;;1.70;0.60;;;26.10;50.50;;;;;;5035255;28;20021;-47
2022/06/06 03:37:36;;;;;;;1.65;0.65;;;26.10;50.50;;;;;;5024941;28;20025;-46
2022/06/06 03:40:23;;;;;;;2.22;0.70;;;26.10;50.60;;;;;;5035346;28;20045;-47
2022/06/06 03:43:14;;;;;;;1.02;0.50;;;26.10;50.60;;;;;;5032390;28;20707;-47
2022/06/06 03:46:00;;;;;;;2.97;0.75;;;26.10;50.60;;;;;;5034591;28;20060;-46
2022/06/06 03:48:29;;;;;;;1.67;0.60;;;26.10;50.60;;;;;;5031299;28;20124;-47
2022/06/06 03:51:14;;;;;;;2.88;1.02;;;26.10;50.50;;;;;;5034905;28;20432;-46
2022/06/06 03:53:46;;;;;;;2.35;0.52;;;26.00;50.60;;;;;;5033014;28;20063;-47
2022/06/06 03:56:27;;;;;;;1.15;0.50;;;26.10;50.90;;;;;;5035243;28;20692;-47
2022/06/06 03:58:54;;;;;;;1.13;0.50;;;26.10;50.50;;;;;;5032664;28;20117;-47
2022/06/06 04:01:23;;;;;;;0.80;0.45;;;26.10;50.50;;;;;;5025001;28;20014;-47
2022/06/06 04:03:49;;;;;;;0.57;0.40;;;26.10;50.40;;;;;;5034760;28;20024;-47
2022/06/06 04:06:17;;;;;;;1.17;0.57;;;26.10;50.40;;;;;;5035156;28;20022;-46
2022/06/06 04:08:43;;;;;;;1.38;0.63;;;26.10;50.40;;;;;;5024069;28;20018;-47
2022/06/06 04:11:28;;;;;;;1.60;0.63;;;26.00;50.40;;;;;;5033968;28;20028;-47
2022/06/06 04:14:08;;;;;;;0.85;0.55;;;26.00;50.50;;;;;;5016977;28;20033;-47
2022/06/06 04:17:00;;;;;;;1.23;0.50;;;26.00;50.50;;;;;;5033083;28;20158;-46
2022/06/06 04:19:34;;;;;;;1.33;0.65;;;26.10;50.50;;;;;;5000190;28;20029;-47
2022/06/06 04:22:39;;;;;;;1.38;0.70;;;26.00;50.40;;;;;;5033100;28;20101;-45
2022/06/06 04:25:17;;;;;;;1.27;0.80;;;26.10;50.40;;;;;;5009466;28;20079;-47
2022/06/06 04:28:16;;;;;;;1.30;0.40;;;26.10;50.50;;;;;;5032919;28;20546;-47
2022/06/06 04:31:05;;;;;;;1.33;0.43;;;26.00;50.50;;;;;;5032761;28;20116;-46
2022/06/06 04:33:45;;;;;;;1.27;0.47;;;26.10;50.40;;;;;;4978496;28;20040;-46
2022/06/06 04:36:28;;;;;;;1.55;0.50;;;26.00;50.40;;;;;;5032479;28;20613;-47
2022/06/06 04:39:10;;;;;;;0.50;0.40;;;26.00;50.30;;;;;;5033002;28;20048;-46
2022/06/06 04:42:04;;;;;;;1.23;0.60;;;26.00;50.30;;;;;;5028079;28;20025;-47
2022/06/06 04:45:00;;;;;;;1.60;0.60;;;26.00;50.20;;;;;;5031841;28;20055;-47
2022/06/06 04:47:33;;;;;;;1.02;0.43;;;26.00;50.20;;;;;;5033745;28;20136;-46
2022/06/06 04:50:06;;;;;;;0.82;0.40;;;26.00;50.30;;;;;;5033227;28;20014;-46
2022/06/06 04:52:36;;;;;;;1.48;0.60;;;26.00;50.30;;;;;;5033553;28;20031;-47
2022/06/06 04:55:04;;;;;;;1.60;0.60;;;26.00;50.10;;;;;;5031273;28;20033;-47
2022/06/06 04:57:31;;;;;;;0.50;0.30;;;26.00;49.80;;;;;;5023649;28;20556;-46
2022/06/06 04:59:58;;;;;;;1.05;0.50;;;26.00;49.90;;;;;;5015465;28;20025;-46
2022/06/06 05:02:25;;;;;;;1.38;0.40;;;26.00;49.90;;;;;;5032141;28;20476;-47
2022/06/06 05:04:51;;;;;;;1.63;0.70;;;26.00;49.90;;;;;;5023823;28;20029;-48
2022/06/06 05:07:29;;;;;;;0.73;0.43;;;26.00;49.90;;;;;;5033398;28;20098;-45
2022/06/06 05:10:26;;;;;;;0.52;0.28;;;26.00;50.00;;;;;;5032477;28;20453;-47
2022/06/06 05:13:16;;;;;;;1.05;0.38;;;26.00;49.90;;;;;;5033259;28;20013;-46
2022/06/06 05:15:51;;;;;;;1.83;0.70;;;26.00;50.00;;;;;;5033455;28;20553;-47
2022/06/06 05:18:59;;;;;;;1.35;0.47;;;26.00;50.00;;;;;;5031256;28;20037;-47
2022/06/06 05:21:44;;;;;;;1.30;0.57;;;26.00;49.90;;;;;;5013560;28;20036;-47
2022/06/06 05:24:38;;;;;;;0.98;0.47;;;26.00;49.80;;;;;;5032900;28;20087;-46
2022/06/06 05:27:23;;;;;;;0.98;0.40;;;26.00;50.00;;;;;;5027024;28;20117;-47
2022/06/06 05:30:01;;;;;;;0.85;0.40;;;26.00;49.90;;;;;;5033727;28;20191;-46
2022/06/06 05:33:05;;;;;;;2.10;0.70;;;26.00;49.90;;;;;;5022679;28;20183;-46
2022/06/06 05:35:52;;;;;;;1.30;0.63;;;26.00;50.10;;;;;;5030344;28;20132;-47
2022/06/06 05:38:20;;;;;;;1.00;0.40;;;26.00;49.90;;;;;;5030725;28;20374;-47
2022/06/06 05:40:52;;;;;;;1.02;0.60;;;26.00;49.90;;;;;;5031982;28;20552;-46
2022/06/06 05:43:30;;;;;;;1.30;0.60;;;26.00;50.00;;;;;;5013270;28;20125;-47
2022/06/06 05:46:06;;;;;;;2.15;0.47;;;26.00;50.20;;;;;;5030465;28;20038;-46
2022/06/06 05:48:46;;;;;;;2.08;0.70;;;26.00;50.50;;;;;;5031470;28;20200;-47
2022/06/06 05:51:33;;;;;;;1.15;0.50;;;26.00;50.60;;;;;;5031501;28;20075;-47
2022/06/06 05:54:25;;;;;;;1.25;0.60;;;26.00;50.60;;;;;;5031051;28;20417;-46
2022/06/06 05:57:17;;;;;;;1.77;0.43;;;26.00;50.80;;;;;;5026240;28;20060;-46
2022/06/06 06:00:03;;;;;;;0.77;0.43;;;26.00;50.80;;;;;;5027130;28;20186;-48
2022/06/06 06:03:02;;;;;;;1.83;0.80;;;26.00;50.80;;;;;;5031658;28;20788;-48
2022/06/06 06:05:30;;;;;;;1.45;0.60;;;26.00;50.70;;;;;;4987503;28;20120;-49
2022/06/06 06:08:04;;;;;;;1.40;0.55;;;26.00;50.60;;;;;;5031834;28;20028;-47
2022/06/06 06:10:54;;;;;;;2.05;1.00;;;26.00;50.70;;;;;;5030955;28;20104;-46
2022/06/06 06:13:33;;;;;;;2.50;1.40;;;26.00;50.60;;;;;;5031414;28;20030;-46
2022/06/06 06:16:03;;;;;;;4.03;1.73;;;26.00;50.70;;;;;;5024537;28;20104;-46
2022/06/06 06:18:36;;;;;;;2.20;1.30;;;25.90;50.50;;;;;;5030049;28;20033;-47
2022/06/06 06:21:14;;;;;;;2.53;1.60;;;25.80;50.90;;;;;;5043190;28;20033;-47
2022/06/06 06:23:49;;;;;;;2.88;1.50;;;25.70;50.90;;;;;;5025621;28;20060;-47
2022/06/06 06:26:16;;;;;;;2.97;1.58;;;25.60;50.70;;;;;;5022943;28;20021;-46
2022/06/06 06:28:43;;;;;;;3.13;1.48;;;25.60;51.00;;;;;;5022439;28;20104;-47
2022/06/06 06:31:36;;;;;;;2.80;1.65;;;25.40;51.20;;;;;;5012871;28;20045;-46
2022/06/06 06:34:30;;;;;;;2.75;1.60;;;25.40;51.50;;;;;;5003275;28;20029;-47
2022/06/06 06:37:31;;;;;;;3.40;1.90;;;25.30;51.70;;;;;;5002936;28;20037;-46
2022/06/06 06:40:19;;;;;;;3.63;1.67;;;25.20;51.80;;;;;;5003263;28;20030;-47
2022/06/06 06:42:47;;;;;;;3.00;1.77;;;25.10;52.10;;;;;;5020831;28;20021;-47
2022/06/06 06:45:23;;;;;;;3.60;1.92;;;25.10;52.80;;;;;;5022393;28;20030;-47
2022/06/06 06:48:05;;;;;;;4.50;1.88;;;25.00;53.10;;;;;;5022500;28;20037;-47
2022/06/06 06:50:47;;;;;;;4.65;2.08;;;24.90;53.00;;;;;;5004906;28;20553;-45
2022/06/06 06:53:47;;;;;;;5.63;2.17;;;24.90;53.90;;;;;;5022290;28;20610;-48
2022/06/06 06:56:36;;;;;;;3.08;1.80;;;24.80;53.40;;;;;;5022312;28;20033;-47
2022/06/06 06:59:08;;;;;;;3.97;1.98;;;24.70;53.70;;;;;;5021927;28;20625;-48
2022/06/06 07:08:34;;;;;;;4.30;2.00;;;24.60;54.40;;;;;;5021842;28;20033;-47
2022/06/06 07:11:20;;;;;;;3.28;1.98;;;24.50;54.10;;;;;;4997905;28;20038;-49
2022/06/06 07:14:19;;;;;;;4.55;1.92;;;24.40;54.10;;;;;;5022357;28;20034;-47
2022/06/06 07:16:53;;;;;;;3.50;2.33;;;24.40;54.90;;;;;;5022482;28;20033;-47
2022/06/06 07:19:22;;;;;;;4.30;2.25;;;24.30;54.80;;;;;;5024155;28;20452;-47
2022/06/06 07:21:49;;;;;;;4.07;2.17;;;24.30;55.00;;;;;;5007495;28;20025;-47
2022/06/06 07:24:21;;;;;;;3.70;2.30;;;24.30;54.90;;;;;;5025522;28;20025;-47
2022/06/06 07:26:48;;;;;;;4.53;3.08;;;24.30;55.20;;;;;;5025249;28;20633;-47
2022/06/06 07:29:20;;;;;;;3.90;2.90;;;24.30;57.00;;;;;;5024936;28;20029;-47
2022/06/06 07:31:54;;;;;;;3.42;2.50;;;24.40;57.20;;;;;;5022703;28;20037;-48
2022/06/06 07:34:32;;;;;;;5.70;2.25;;;24.70;56.40;;;;;;5025262;28;20566;-47
2022/06/06 07:37:14;;;;;;;3.90;1.65;;;24.90;55.20;;;;;;5025113;28;20102;-47
2022/06/06 07:39:44;;;;;;;2.97;1.50;;;25.00;54.10;;;;;;5025026;28;20022;-46
2022/06/06 07:42:48;;;;;;;2.97;1.33;;;25.10;53.70;;;;;;5025708;28;20057;-45
2022/06/06 07:45:31;;;;;;;3.33;1.50;;;25.20;53.40;;;;;;5004884;28;20697;-46
2022/06/06 07:47:56;;;;;;;;;;;25.20;53.20;;;;;;5034634;28;20033;-49
2022/06/06 07:50:33;;;;;;;2.83;1.23;;;25.20;53.00;;;;;;5026743;28;20564;-49
2022/06/06 07:53:35;;;;;;;2.45;1.38;;;25.20;52.80;;;;;;5024416;28;20574;-47
2022/06/06 07:56:17;;;;;;;2.30;1.27;;;25.30;52.70;;;;;;5023023;28;20029;-50
2022/06/06 07:58:45;;;;;;;3.47;1.80;;;25.30;52.50;;;;;;5024416;28;20029;-50
2022/06/06 08:01:41;;;;;;;3.58;1.58;;;25.20;52.30;;;;;;5024760;28;20307;-49
2022/06/06 08:04:20;;;;;;;3.08;1.55;;;25.20;52.10;;;;;;5024068;28;20437;-50
2022/06/06 08:06:56;;;;;;;5.00;1.67;;;25.20;52.00;;;;;;5024507;28;20028;-49
2022/06/06 08:09:25;;;;;;;2.58;1.60;;;25.20;52.30;;;;;;5023781;28;20075;-50
2022/06/06 08:11:53;;;;;;;2.88;1.80;;;25.30;51.90;;;;;;5023905;28;20551;-49
2022/06/06 08:14:31;;;;;;;5.15;1.70;;;25.30;52.10;;;;;;5023706;28;20040;-48
2022/06/06 08:17:35;;;;;;;2.70;1.45;;;25.30;52.30;;;;;;5023959;28;20397;-48
2022/06/06 08:20:28;;;;;;;3.10;1.63;;;25.30;52.20;;;;;;5024033;28;20555;-49
2022/06/06 08:22:56;;;;;;;;;;;25.30;52.10;;;;;;5024922;28;20033;-48
2022/06/06 08:25:23;;;;;;;2.35;1.23;;;25.30;51.90;;;;;;5024411;28;19905;-48
2022/06/06 08:27:51;;;;;;;3.53;1.70;;;25.30;52.00;;;;;;5018625;28;20172;-47
2022/06/06 08:30:19;;;;;;;2.80;1.50;;;25.30;52.10;;;;;;5021408;28;20029;-47
2022/06/06 08:32:45;;;;;;;3.05;1.65;;;25.30;52.00;;;;;;5020491;28;20033;-48
2022/06/06 08:35:11;;;;;;;2.78;1.30;;;25.30;51.90;;;;;;5024065;28;20118;-48
2022/06/06 08:37:52;;;;;;;2.20;1.40;;;25.40;52.00;;;;;;5020778;28;20586;-48
2022/06/06 08:40:33;;;;;;;2.75;1.65;;;25.40;51.30;;;;;;5014128;28;20032;-48
2022/06/06 08:43:22;;;;;;;4.13;1.80;;;25.40;51.30;;;;;;5023866;28;20477;-48
2022/06/06 08:46:06;;;;;;;3.88;2.25;;;25.30;50.80;;;;;;5020459;28;20041;-48
2022/06/06 08:49:10;;;;;;;3.42;1.90;;;25.30;51.30;;;;;;5023882;28;20053;-49
2022/06/06 08:51:49;;;;;;;2.70;1.52;;;25.30;51.40;;;;;;5023753;28;20037;-48
2022/06/06 08:55:05;;;;;;;3.10;1.67;;;25.30;51.30;;;;;;5023275;28;20037;-47
2022/06/06 08:58:02;;;;;;;2.75;1.70;;;25.40;51.30;;;;;;5008743;28;20026;-47
2022/06/06 09:00:56;;;;;;;4.15;1.70;;;25.40;51.40;;;;;;5012159;28;20068;-46
2022/06/06 09:03:51;;;;;;;8.20;1.67;;;25.40;51.30;;;;;;5023532;28;20087;-48
2022/06/06 09:06:41;;;;;;;7.93;2.15;;;25.40;51.40;;;;;;5030251;28;20426;-48
2022/06/06 09:09:39;;;;;;;5.00;1.63;;;25.40;51.40;;;;;;5031168;28;20105;-49
2022/06/06 09:12:46;;;;;;;5.95;2.10;;;25.50;51.30;;;;;;5030856;28;20318;-49
2022/06/06 09:15:24;;;;;;;2.75;1.50;;;25.50;51.30;;;;;;4942649;28;20070;-47
2022/06/06 09:18:29;;;;;;;4.95;1.80;;;25.50;51.30;;;;;;5031756;28;20025;-46
2022/06/06 09:21:04;;;;;;;3.28;2.10;;;25.40;51.00;;;;;;5032933;28;20024;-47
2022/06/06 09:23:43;;;;;;;6.35;2.20;;;25.40;50.80;;;;;;5023784;28;20489;-48
2022/06/06 09:26:14;;;;;;;3.30;1.90;;;25.40;51.40;;;;;;5023858;28;20033;-48
2022/06/06 09:29:37;;;;;;;2.35;1.50;;;25.40;51.70;;;;;;5022643;28;20022;-47
2022/06/06 09:32:21;;;;;;;2.58;1.70;;;25.40;51.40;;;;;;4982843;28;20335;-46
2022/06/06 09:34:58;;;;;;;3.67;2.10;;;25.40;51.40;;;;;;5027561;28;20034;-48
2022/06/06 09:37:37;;;;;;;4.50;2.10;;;25.50;51.30;;;;;;5030180;28;20032;-48
2022/06/06 09:40:27;;;;;;;3.38;1.90;;;25.40;50.90;;;;;;5026534;28;20116;-46
2022/06/06 09:43:22;;;;;;;3.83;1.98;;;25.40;51.10;;;;;;5030195;28;20096;-45
2022/06/06 09:45:53;;;;;;;3.67;1.70;;;25.40;51.40;;;;;;5021118;28;20519;-47
2022/06/06 09:48:44;;;;;;;3.47;1.80;;;25.40;51.30;;;;;;5027509;28;20035;-47
2022/06/06 09:51:36;;;;;;;3.25;1.73;;;25.40;51.30;;;;;;5021743;28;20033;-46
2022/06/06 10:00:17;;;;;;;3.28;1.65;;;25.40;51.00;;;;;;5021590;28;20026;-47
2022/06/06 10:03:14;;;;;;;2.78;1.55;;;25.40;51.00;;;;;;5021860;28;20025;-48
2022/06/06 10:06:10;;;;;;;3.47;1.70;;;25.40;51.00;;;;;;5022384;28;20499;-45
2022/06/06 10:08:45;;;;;;;3.65;1.88;;;25.30;50.40;;;;;;5021936;28;20780;-47
2022/06/06 10:11:53;;;;;;;2.22;1.45;;;25.30;49.50;;;;;;5030799;28;20060;-47
2022/06/06 10:14:21;;;;;;;3.17;1.30;;;25.20;50.60;;;;;;5031991;28;20112;-46
2022/06/06 10:17:03;;;;;;;2.33;1.30;;;25.20;51.40;;;;;;5022431;28;20048;-46
2022/06/06 10:19:50;;;;;;;2.63;1.50;;;25.20;52.30;;;;;;5021947;28;20026;-46
2022/06/06 10:22:36;;;;;;;2.70;1.60;;;25.20;52.20;;;;;;5031122;28;20104;-46
2022/06/06 10:25:08;;;;;;;4.10;1.90;;;25.20;52.90;;;;;;5018679;28;20708;-46
2022/06/06 10:27:51;;;;;;;2.60;1.50;;;25.20;52.70;;;;;;5031052;28;20234;-47
2022/06/06 10:30:26;;;;;;;4.18;2.00;;;25.10;51.70;;;;;;5030967;28;20029;-46
2022/06/06 10:33:13;;;;;;;2.85;1.77;;;25.10;52.00;;;;;;5026444;28;20037;-47
2022/06/06 10:36:19;;;;;;;3.15;1.90;;;25.10;51.90;;;;;;5020955;28;20025;-48
2022/06/06 10:39:12;;;;;;;3.20;1.52;;;25.00;51.10;;;;;;5004269;28;20195;-47
2022/06/06 10:41:55;;;;;;;3.08;1.77;;;25.00;51.00;;;;;;5021167;28;20041;-47
2022/06/06 10:44:40;;;;;;;;;;;25.00;51.20;;;;;;5018604;28;20036;-47
2022/06/06 10:47:09;;;;;;;2.55;1.58;;;25.00;51.50;;;;;;5019303;28;19916;-47
2022/06/06 10:50:16;;;;;;;3.50;2.40;;;24.90;52.40;;;;;;5014782;28;20048;-47
2022/06/06 10:52:56;;;;;;;4.22;2.47;;;24.90;54.50;;;;;;5009599;28;20025;-47
2022/06/06 10:56:01;;;;;;;4.35;2.40;;;25.00;55.60;;;;;;5034897;28;20842;-46
2022/06/06 10:58:47;;;;;;;4.10;2.03;;;25.00;56.60;;;;;;4992957;28;20158;-45
2022/06/06 11:01:43;;;;;;;3.70;1.98;;;25.00;55.50;;;;;;5032284;28;20040;-47
2022/06/06 11:04:44;;;;;;;4.13;2.20;;;25.00;54.90;;;;;;5026412;28;20060;-47
2022/06/06 11:07:48;;;;;;;5.68;2.25;;;25.10;55.60;;;;;;5025680;28;20026;-47
2022/06/06 11:10:49;;;;;;;4.03;2.53;;;25.10;56.20;;;;;;5026054;28;20635;-46
2022/06/06 11:13:25;;;;;;;4.22;2.42;;;25.20;55.70;;;;;;5026053;28;20861;-47
2022/06/06 11:16:10;;;;;;;3.55;2.78;;;25.20;54.20;;;;;;5025722;28;20036;-45
2022/06/06 11:18:42;;;;;;;4.57;2.60;;;25.20;54.70;;;;;;5024884;28;20740;-45
2022/06/06 11:21:20;;;;;;;5.30;3.17;;;25.20;53.70;;;;;;5025537;28;20033;-46
2022/06/06 11:24:01;;;;;;;5.10;3.60;;;25.20;56.40;;;;;;5025534;28;20034;-45
2022/06/06 11:26:35;;;;;;;4.45;2.85;;;25.20;55.90;;;;;;5025918;28;20026;-46
2022/06/06 11:29:13;;;;;;;4.03;2.08;;;25.30;54.60;;;;;;5007006;28;20029;-45
2022/06/06 11:32:17;;;;;;;2.92;1.77;;;25.30;52.90;;;;;;5005400;28;20033;-46
2022/06/06 11:35:01;;;;;;;2.78;1.70;;;25.30;53.50;;;;;;5017824;28;20025;-46
2022/06/06 11:37:48;;;;;;;3.08;1.48;;;25.30;52.40;;;;;;5017048;28;20854;-46
2022/06/06 11:40:32;;;;;;;2.22;1.35;;;25.30;53.20;;;;;;5024526;28;20096;-45
2022/06/06 11:43:33;;;;;;;2.90;1.27;;;25.40;52.10;;;;;;5006986;28;20029;-46
2022/06/06 11:46:23;;;;;;;3.20;1.75;;;25.30;51.20;;;;;;4975731;28;20089;-46
2022/06/06 11:49:07;;;;;;;3.03;1.75;;;25.30;51.30;;;;;;5005244;28;20030;-46
2022/06/06 11:51:32;;;;;;;3.60;2.00;;;25.30;51.00;;;;;;5005770;28;20050;-45
2022/06/06 11:54:16;;;;;;;3.72;2.13;;;25.40;51.60;;;;;;5024813;28;20087;-46
2022/06/06 11:57:18;;;;;;;2.70;1.63;;;25.40;52.20;;;;;;5024867;28;20022;-44
2022/06/06 12:00:18;;;;;;;3.78;1.75;;;25.40;52.10;;;;;;5024822;28;20137;-45
2022/06/06 12:03:11;;;;;;;3.40;2.13;;;25.40;52.30;;;;;;5024699;28;20021;-47
2022/06/06 12:05:48;;;;;;;3.35;1.75;;;25.40;52.10;;;;;;5024081;28;20030;-46
2022/06/06 12:08:32;;;;;;;3.78;1.77;;;25.40;51.40;;;;;;5024398;28;20034;-47
2022/06/06 12:11:13;;;;;;;2.97;1.80;;;25.40;51.30;;;;;;5024908;28;20030;-47
2022/06/06 12:13:50;;;;;;;4.35;2.42;;;25.50;50.50;;;;;;5024658;28;20025;-47
2022/06/06 12:16:31;;;;;;;4.95;2.30;;;25.50;53.00;;;;;;5005666;28;20103;-46
2022/06/06 12:19:06;;;;;;;3.10;1.83;;;25.50;52.40;;;;;;5024150;28;20109;-47
2022/06/06 12:21:52;;;;;;;3.45;2.08;;;25.50;51.80;;;;;;5024435;28;20021;-46
2022/06/06 12:24:37;;;;;;;2.97;1.52;;;25.60;51.20;;;;;;5004220;28;20655;-46
2022/06/06 12:27:26;;;;;;;2.92;1.42;;;25.60;51.70;;;;;;4998428;28;20053;-46
2022/06/06 12:30:01;;;;;;;3.45;1.90;;;25.60;51.80;;;;;;5023695;28;20539;-46
2022/06/06 12:32:32;;;;;;;3.08;1.63;;;25.60;52.00;;;;;;5023895;28;20646;-46
2022/06/06 12:35:21;;;;;;;2.80;1.58;;;25.60;51.10;;;;;;5023140;28;20716;-47
2022/06/06 12:38:01;;;;;;;3.65;2.17;;;25.60;51.80;;;;;;5023544;28;20053;-46
2022/06/06 12:40:35;;;;;;;4.13;1.60;;;25.70;52.00;;;;;;5024056;28;20013;-46
2022/06/06 12:43:27;;;;;;;2.90;1.65;;;25.70;52.40;;;;;;5024000;28;20105;-47
2022/06/06 12:46:07;;;;;;;4.22;2.13;;;25.70;51.10;;;;;;5022178;28;20018;-47
2022/06/06 12:49:08;;;;;;;3.42;1.95;;;25.80;50.70;;;;;;5023371;28;20030;-47
2022/06/06 12:52:14;;;;;;;3.45;1.58;;;25.80;50.10;;;;;;5022667;28;20033;-45
2022/06/06 12:58:21;;;;;;;3.28;1.70;;;25.80;49.30;;;;;;5043561;28;20052;-47
2022/06/06 13:04:07;;;;;;;2.75;1.50;;;25.80;47.90;;;;;;5023943;28;19920;-45
2022/06/06 13:06:54;;;;;;;2.80;1.60;;;25.80;49.40;;;;;;5023488;28;20028;-45
2022/06/06 13:09:47;;;;;;;3.28;1.50;;;25.90;49.40;;;;;;5024110;28;20026;-45
2022/06/06 13:12:25;;;;;;;3.17;1.75;;;25.90;50.00;;;;;;5023341;28;20104;-46
2022/06/06 13:15:08;;;;;;;3.85;1.90;;;26.00;48.70;;;;;;5023105;28;20033;-46
2022/06/06 13:17:34;;;;;;;;;;;26.00;48.50;;;;;;5023041;28;20120;-45
2022/06/06 13:20:19;;;;;;;3.35;1.67;;;26.00;49.70;;;;;;5023912;28;19992;-46
2022/06/06 13:23:03;;;;;;;2.90;1.65;;;26.00;50.10;;;;;;5022652;28;20026;-46
2022/06/06 13:25:59;;;;;;;2.90;1.63;;;26.00;50.60;;;;;;5003456;28;20025;-46
2022/06/06 13:28:27;;;;;;;2.95;1.70;;;26.00;50.20;;;;;;5020043;28;20068;-44
2022/06/06 13:30:59;;;;;;;3.00;1.65;;;26.10;49.30;;;;;;5020911;28;20025;-46
2022/06/06 13:33:45;;;;;;;3.55;1.80;;;26.10;49.70;;;;;;5017909;28;20063;-46
2022/06/06 13:36:35;;;;;;;3.17;1.58;;;26.10;49.40;;;;;;5020135;28;20397;-45
2022/06/06 13:39:29;;;;;;;4.10;2.10;;;26.20;49.20;;;;;;5022556;28;20022;-45
2022/06/06 13:42:27;;;;;;;3.00;1.80;;;26.20;49.80;;;;;;5022023;28;20779;-45
2022/06/06 13:45:10;;;;;;;3.35;2.30;;;26.20;49.60;;;;;;5016254;28;20056;-46
2022/06/06 13:48:03;;;;;;;3.97;2.13;;;26.30;50.20;;;;;;5019631;28;20033;-45
2022/06/06 13:50:45;;;;;;;3.92;2.33;;;26.30;49.00;;;;;;5014873;28;20442;-46
2022/06/06 13:53:50;;;;;;;2.83;1.80;;;26.30;50.20;;;;;;5011076;28;20041;-45
2022/06/06 13:56:16;;;;;;;3.10;1.80;;;26.30;49.90;;;;;;5001737;28;20022;-47
2022/06/06 13:59:08;;;;;;;3.25;1.90;;;26.40;50.00;;;;;;5030323;28;20746;-46
2022/06/06 14:01:37;;;;;;;2.80;1.60;;;26.40;48.80;;;;;;5030657;28;20553;-47
2022/06/06 14:04:24;;;;;;;4.55;1.77;;;26.40;48.30;;;;;;5030853;28;20166;-47
2022/06/06 14:07:04;;;;;;;3.92;1.77;;;26.40;48.10;;;;;;5031187;28;20079;-45
2022/06/06 14:09:40;;;;;;;3.08;1.83;;;26.40;48.20;;;;;;5031181;28;20077;-44
2022/06/06 14:12:36;;;;;;;3.47;1.80;;;26.50;48.50;;;;;;5012621;28;20531;-46
2022/06/06 14:15:14;;;;;;;3.25;2.10;;;26.50;49.40;;;;;;5018156;28;20972;-46
2022/06/06 14:17:49;;;;;;;2.90;1.73;;;26.50;49.70;;;;;;5029210;28;20274;-46
2022/06/06 14:20:44;;;;;;;3.42;1.83;;;26.50;48.90;;;;;;5028430;28;20701;-44